sensor_id;sensor_type;location;lat;lon;timestamp;pressure;altitude;pressure_sealevel;temperature;humidity
64698;BME280;51124;53.394;-6.294;2023-04-26T00:02:20;101085.18;;;16.97;10.93
64698;BME280;51124;53.394;-6.294;2023-04-26T00:04:54;101086.31;;;16.57;10.67
64698;BME280;51124;53.394;-6.294;2023-04-26T00:07:31;101084.78;;;16.86;10.80
64698;BME280;51124;53.394;-6.294;2023-04-26T00:09:59;101085.67;;;16.51;10.58
64698;BME280;51124;53.394;-6.294;2023-04-26T00:12:26;101084.74;;;16.31;10.56
64698;BME280;51124;53.394;-6.294;2023-04-26T00:14:53;101081.64;;;16.33;10.41
64698;BME280;51124;53.394;-6.294;2023-04-26T00:17:21;101079.85;;;16.73;10.14
64698;BME280;51124;53.394;-6.294;2023-04-26T00:19:45;101081.03;;;17.29;10.05
64698;BME280;51124;53.394;-6.294;2023-04-26T00:22:19;101082.59;;;17.41;9.97
64698;BME280;51124;53.394;-6.294;2023-04-26T00:24:52;101077.21;;;16.65;10.01
64698;BME280;51124;53.394;-6.294;2023-04-26T00:27:25;101080.29;;;16.17;9.99
64698;BME280;51124;53.394;-6.294;2023-04-26T00:29:59;101082.87;;;17.12;9.88
64698;BME280;51124;53.394;-6.294;2023-04-26T00:32:32;101077.81;;;15.59;10.17
64698;BME280;51124;53.394;-6.294;2023-04-26T00:35:06;101079.98;;;15.85;9.91
64698;BME280;51124;53.394;-6.294;2023-04-26T00:37:40;101074.49;;;16.88;9.77
64698;BME280;51124;53.394;-6.294;2023-04-26T00:40:14;101070.86;;;16.88;9.58
64698;BME280;51124;53.394;-6.294;2023-04-26T00:42:47;101080.07;;;16.11;9.85
64698;BME280;51124;53.394;-6.294;2023-04-26T00:45:20;101069.02;;;17.05;9.61
64698;BME280;51124;53.394;-6.294;2023-04-26T00:47:54;101062.01;;;16.15;9.68
64698;BME280;51124;53.394;-6.294;2023-04-26T00:50:28;101058.69;;;16.63;9.60
64698;BME280;51124;53.394;-6.294;2023-04-26T00:53:02;101055.24;;;16.84;9.49
64698;BME280;51124;53.394;-6.294;2023-04-26T00:55:36;101053.36;;;16.71;9.50
64698;BME280;51124;53.394;-6.294;2023-04-26T00:58:10;101047.21;;;16.75;9.39
64698;BME280;51124;53.394;-6.294;2023-04-26T01:00:43;101045.14;;;16.57;9.52
64698;BME280;51124;53.394;-6.294;2023-04-26T01:03:17;101038.62;;;16.42;9.66
64698;BME280;51124;53.394;-6.294;2023-04-26T01:05:50;101034.84;;;16.53;9.68
64698;BME280;51124;53.394;-6.294;2023-04-26T01:08:24;101033.19;;;16.54;9.48
64698;BME280;51124;53.394;-6.294;2023-04-26T01:10:58;101027.20;;;15.80;9.57
64698;BME280;51124;53.394;-6.294;2023-04-26T01:13:31;101025.18;;;16.78;9.46
64698;BME280;51124;53.394;-6.294;2023-04-26T01:16:06;101019.98;;;17.06;9.37
64698;BME280;51124;53.394;-6.294;2023-04-26T01:18:30;101018.25;;;16.52;9.41
64698;BME280;51124;53.394;-6.294;2023-04-26T01:21:03;101015.85;;;15.31;9.83
64698;BME280;51124;53.394;-6.294;2023-04-26T01:23:36;101019.19;;;15.59;9.82
64698;BME280;51124;53.394;-6.294;2023-04-26T01:26:10;101014.85;;;16.86;9.52
64698;BME280;51124;53.394;-6.294;2023-04-26T01:28:43;101017.52;;;15.99;9.62
64698;BME280;51124;53.394;-6.294;2023-04-26T01:31:17;101016.74;;;16.32;9.69
64698;BME280;51124;53.394;-6.294;2023-04-26T01:33:50;101009.48;;;16.95;9.67
64698;BME280;51124;53.394;-6.294;2023-04-26T01:36:23;101007.72;;;15.87;9.59
64698;BME280;51124;53.394;-6.294;2023-04-26T01:38:57;101006.69;;;16.64;9.45
64698;BME280;51124;53.394;-6.294;2023-04-26T01:41:30;100998.57;;;16.90;9.68
64698;BME280;51124;53.394;-6.294;2023-04-26T01:44:04;100999.77;;;16.09;9.67
64698;BME280;51124;53.394;-6.294;2023-04-26T01:46:37;100999.24;;;16.48;9.54
64698;BME280;51124;53.394;-6.294;2023-04-26T01:49:11;100994.33;;;17.13;9.59
64698;BME280;51124;53.394;-6.294;2023-04-26T01:51:44;100993.90;;;16.54;9.60
64698;BME280;51124;53.394;-6.294;2023-04-26T01:54:18;100992.48;;;16.86;9.28
64698;BME280;51124;53.394;-6.294;2023-04-26T01:56:51;100991.32;;;16.12;9.70
64698;BME280;51124;53.394;-6.294;2023-04-26T01:59:25;100986.24;;;16.16;9.52
64698;BME280;51124;53.394;-6.294;2023-04-26T02:01:58;100988.16;;;15.76;9.75
64698;BME280;51124;53.394;-6.294;2023-04-26T02:04:32;100983.90;;;18.13;9.81
64698;BME280;51124;53.394;-6.294;2023-04-26T02:07:05;100989.82;;;18.68;10.06
64698;BME280;51124;53.394;-6.294;2023-04-26T02:09:39;100990.92;;;17.59;10.36
64698;BME280;51124;53.394;-6.294;2023-04-26T02:12:12;100990.05;;;15.56;10.44
64698;BME280;51124;53.394;-6.294;2023-04-26T02:14:46;100993.70;;;18.69;10.71
64698;BME280;51124;53.394;-6.294;2023-04-26T02:17:20;100988.73;;;18.89;11.11
64698;BME280;51124;53.394;-6.294;2023-04-26T02:19:54;100990.54;;;18.46;11.44
64698;BME280;51124;53.394;-6.294;2023-04-26T02:22:27;100991.67;;;18.81;11.39
64698;BME280;51124;53.394;-6.294;2023-04-26T02:25:01;100985.04;;;18.81;11.55
64698;BME280;51124;53.394;-6.294;2023-04-26T02:27:34;100980.95;;;18.87;11.62
64698;BME280;51124;53.394;-6.294;2023-04-26T02:30:09;100975.39;;;18.29;11.76
64698;BME280;51124;53.394;-6.294;2023-04-26T02:32:42;100974.08;;;17.74;12.02
64698;BME280;51124;53.394;-6.294;2023-04-26T02:35:16;100972.52;;;18.03;11.78
64698;BME280;51124;53.394;-6.294;2023-04-26T02:37:50;100971.12;;;19.26;11.78
64698;BME280;51124;53.394;-6.294;2023-04-26T02:40:23;100972.92;;;17.70;12.00
64698;BME280;51124;53.394;-6.294;2023-04-26T02:42:57;100966.29;;;18.00;11.87
64698;BME280;51124;53.394;-6.294;2023-04-26T02:45:31;100966.82;;;19.05;11.79
64698;BME280;51124;53.394;-6.294;2023-04-26T02:48:05;100965.97;;;18.63;11.84
64698;BME280;51124;53.394;-6.294;2023-04-26T02:50:38;100957.85;;;18.35;11.88
64698;BME280;51124;53.394;-6.294;2023-04-26T02:53:12;100954.69;;;17.85;12.02
64698;BME280;51124;53.394;-6.294;2023-04-26T02:55:45;100955.67;;;17.86;11.99
64698;BME280;51124;53.394;-6.294;2023-04-26T02:58:19;100947.69;;;18.82;11.81
64698;BME280;51124;53.394;-6.294;2023-04-26T03:00:53;100951.81;;;18.94;11.80
64698;BME280;51124;53.394;-6.294;2023-04-26T03:03:26;100950.98;;;17.25;11.96
64698;BME280;51124;53.394;-6.294;2023-04-26T03:06:00;100946.01;;;15.91;11.90
64698;BME280;51124;53.394;-6.294;2023-04-26T03:08:33;100949.63;;;16.10;11.31
64698;BME280;51124;53.394;-6.294;2023-04-26T03:11:07;100947.84;;;17.27;10.81
64698;BME280;51124;53.394;-6.294;2023-04-26T03:13:40;100944.04;;;16.75;10.78
64698;BME280;51124;53.394;-6.294;2023-04-26T03:16:14;100947.14;;;16.48;10.58
64698;BME280;51124;53.394;-6.294;2023-04-26T03:18:47;100943.65;;;16.19;10.55
64698;BME280;51124;53.394;-6.294;2023-04-26T03:21:21;100943.42;;;16.63;10.29
64698;BME280;51124;53.394;-6.294;2023-04-26T03:23:54;100940.20;;;17.31;10.10
64698;BME280;51124;53.394;-6.294;2023-04-26T03:26:27;100938.78;;;16.65;10.08
64698;BME280;51124;53.394;-6.294;2023-04-26T03:29:01;100937.14;;;16.55;10.00
64698;BME280;51124;53.394;-6.294;2023-04-26T03:31:34;100937.09;;;16.41;9.98
64698;BME280;51124;53.394;-6.294;2023-04-26T03:34:08;100930.02;;;17.13;9.92
64698;BME280;51124;53.394;-6.294;2023-04-26T03:36:41;100932.04;;;15.99;10.03
64698;BME280;51124;53.394;-6.294;2023-04-26T03:39:15;100932.49;;;16.17;10.05
64698;BME280;51124;53.394;-6.294;2023-04-26T03:41:48;100936.95;;;16.67;9.82
64698;BME280;51124;53.394;-6.294;2023-04-26T03:44:22;100930.63;;;16.16;9.86
64698;BME280;51124;53.394;-6.294;2023-04-26T03:46:55;100928.32;;;16.21;9.80
64698;BME280;51124;53.394;-6.294;2023-04-26T03:49:28;100923.60;;;16.02;9.80
64698;BME280;51124;53.394;-6.294;2023-04-26T03:52:02;100917.52;;;15.91;9.73
64698;BME280;51124;53.394;-6.294;2023-04-26T03:54:35;100917.75;;;15.95;9.73
64698;BME280;51124;53.394;-6.294;2023-04-26T03:57:09;100910.37;;;16.49;9.60
64698;BME280;51124;53.394;-6.294;2023-04-26T03:59:42;100914.71;;;15.89;9.71
64698;BME280;51124;53.394;-6.294;2023-04-26T04:02:15;100907.13;;;16.27;9.49
64698;BME280;51124;53.394;-6.294;2023-04-26T04:04:49;100901.93;;;15.98;9.62
64698;BME280;51124;53.394;-6.294;2023-04-26T04:07:22;100901.14;;;16.46;9.50
64698;BME280;51124;53.394;-6.294;2023-04-26T04:09:55;100897.79;;;15.75;9.71
64698;BME280;51124;53.394;-6.294;2023-04-26T04:12:29;100896.83;;;15.68;9.61
64698;BME280;51124;53.394;-6.294;2023-04-26T04:15:03;100897.73;;;15.83;9.57
64698;BME280;51124;53.394;-6.294;2023-04-26T04:17:36;100896.89;;;15.15;9.70
64698;BME280;51124;53.394;-6.294;2023-04-26T04:20:11;100893.30;;;16.12;9.42
64698;BME280;51124;53.394;-6.294;2023-04-26T04:22:44;100888.98;;;15.99;9.57
64698;BME280;51124;53.394;-6.294;2023-04-26T04:25:18;100890.23;;;14.98;9.78
64698;BME280;51124;53.394;-6.294;2023-04-26T04:27:51;100888.63;;;16.00;9.41
64698;BME280;51124;53.394;-6.294;2023-04-26T04:30:24;100883.53;;;15.71;9.49
64698;BME280;51124;53.394;-6.294;2023-04-26T04:32:58;100884.86;;;16.37;9.49
64698;BME280;51124;53.394;-6.294;2023-04-26T04:35:31;100888.49;;;16.65;9.40
64698;BME280;51124;53.394;-6.294;2023-04-26T04:38:05;100891.72;;;15.30;9.73
64698;BME280;51124;53.394;-6.294;2023-04-26T04:40:38;100890.51;;;15.68;9.62
64698;BME280;51124;53.394;-6.294;2023-04-26T04:43:11;100890.74;;;16.92;9.64
64698;BME280;51124;53.394;-6.294;2023-04-26T04:45:45;100897.84;;;16.22;9.71
64698;BME280;51124;53.394;-6.294;2023-04-26T04:48:18;100890.92;;;16.30;9.51
64698;BME280;51124;53.394;-6.294;2023-04-26T04:50:52;100895.93;;;15.97;9.47
64698;BME280;51124;53.394;-6.294;2023-04-26T04:53:25;100900.48;;;15.80;9.67
64698;BME280;51124;53.394;-6.294;2023-04-26T04:55:58;100892.09;;;15.19;9.87
64698;BME280;51124;53.394;-6.294;2023-04-26T04:58:32;100884.45;;;15.58;9.63
64698;BME280;51124;53.394;-6.294;2023-04-26T05:01:05;100887.11;;;15.74;9.51
64698;BME280;51124;53.394;-6.294;2023-04-26T05:03:39;100881.15;;;16.14;9.54
64698;BME280;51124;53.394;-6.294;2023-04-26T05:06:12;100884.03;;;15.92;9.52
64698;BME280;51124;53.394;-6.294;2023-04-26T05:08:45;100879.46;;;16.42;9.60
64698;BME280;51124;53.394;-6.294;2023-04-26T05:11:19;100882.08;;;16.33;9.40
64698;BME280;51124;53.394;-6.294;2023-04-26T05:13:53;100880.58;;;17.50;9.87
64698;BME280;51124;53.394;-6.294;2023-04-26T05:16:26;100878.83;;;18.44;10.10
64698;BME280;51124;53.394;-6.294;2023-04-26T05:19:00;100883.63;;;18.51;10.19
64698;BME280;51124;53.394;-6.294;2023-04-26T05:21:33;100889.00;;;16.38;10.32
64698;BME280;51124;53.394;-6.294;2023-04-26T05:24:07;100894.45;;;17.84;10.56
64698;BME280;51124;53.394;-6.294;2023-04-26T05:26:41;100896.60;;;19.58;10.62
64698;BME280;51124;53.394;-6.294;2023-04-26T05:29:14;100905.60;;;18.51;11.07
64698;BME280;51124;53.394;-6.294;2023-04-26T05:31:48;100908.77;;;18.54;11.25
64698;BME280;51124;53.394;-6.294;2023-04-26T05:34:22;100911.09;;;18.37;11.52
64698;BME280;51124;53.394;-6.294;2023-04-26T05:36:55;100905.57;;;17.98;11.53
64698;BME280;51124;53.394;-6.294;2023-04-26T05:39:29;100906.84;;;18.61;11.71
64698;BME280;51124;53.394;-6.294;2023-04-26T05:42:03;100904.78;;;18.14;11.54
64698;BME280;51124;53.394;-6.294;2023-04-26T05:44:36;100901.75;;;18.48;11.69
64698;BME280;51124;53.394;-6.294;2023-04-26T05:47:10;100904.44;;;17.86;11.76
64698;BME280;51124;53.394;-6.294;2023-04-26T05:49:44;100906.01;;;18.21;11.72
64698;BME280;51124;53.394;-6.294;2023-04-26T05:52:17;100905.66;;;18.30;11.75
64698;BME280;51124;53.394;-6.294;2023-04-26T05:54:51;100903.22;;;18.08;11.85
64698;BME280;51124;53.394;-6.294;2023-04-26T05:57:24;100898.73;;;18.81;11.68
64698;BME280;51124;53.394;-6.294;2023-04-26T05:59:58;100899.89;;;18.54;11.78
64698;BME280;51124;53.394;-6.294;2023-04-26T06:02:32;100903.25;;;17.29;11.94
64698;BME280;51124;53.394;-6.294;2023-04-26T06:05:06;100898.68;;;17.83;11.76
64698;BME280;51124;53.394;-6.294;2023-04-26T06:07:40;100898.44;;;18.27;11.74
64698;BME280;51124;53.394;-6.294;2023-04-26T06:10:17;100904.83;;;17.65;11.74
64698;BME280;51124;53.394;-6.294;2023-04-26T06:12:45;100900.48;;;18.96;11.66
64698;BME280;51124;53.394;-6.294;2023-04-26T06:15:13;100901.96;;;17.60;11.98
64698;BME280;51124;53.394;-6.294;2023-04-26T06:17:41;100901.91;;;16.53;11.53
64698;BME280;51124;53.394;-6.294;2023-04-26T06:20:09;100909.65;;;16.10;11.26
64698;BME280;51124;53.394;-6.294;2023-04-26T06:22:36;100911.36;;;15.63;11.01
64698;BME280;51124;53.394;-6.294;2023-04-26T06:25:05;100904.27;;;16.52;10.59
64698;BME280;51124;53.394;-6.294;2023-04-26T06:27:33;100908.77;;;16.93;10.55
64698;BME280;51124;53.394;-6.294;2023-04-26T06:30:00;100911.32;;;16.58;10.48
64698;BME280;51124;53.394;-6.294;2023-04-26T06:32:28;100915.89;;;16.67;10.31
64698;BME280;51124;53.394;-6.294;2023-04-26T06:34:55;100914.19;;;16.26;10.31
64698;BME280;51124;53.394;-6.294;2023-04-26T06:37:22;100916.57;;;16.42;10.04
64698;BME280;51124;53.394;-6.294;2023-04-26T06:39:46;100915.16;;;16.11;9.94
64698;BME280;51124;53.394;-6.294;2023-04-26T06:42:19;100915.10;;;16.14;10.07
64698;BME280;51124;53.394;-6.294;2023-04-26T06:44:52;100915.05;;;16.16;9.90
64698;BME280;51124;53.394;-6.294;2023-04-26T06:47:26;100912.28;;;16.30;9.83
64698;BME280;51124;53.394;-6.294;2023-04-26T06:49:59;100912.32;;;16.61;9.68
64698;BME280;51124;53.394;-6.294;2023-04-26T06:52:33;100912.77;;;16.54;9.63
64698;BME280;51124;53.394;-6.294;2023-04-26T06:55:07;100916.84;;;16.28;9.70
64698;BME280;51124;53.394;-6.294;2023-04-26T06:57:41;100910.06;;;16.67;9.53
64698;BME280;51124;53.394;-6.294;2023-04-26T07:00:15;100918.93;;;16.65;9.50
64698;BME280;51124;53.394;-6.294;2023-04-26T07:02:48;100906.99;;;16.31;9.52
64698;BME280;51124;53.394;-6.294;2023-04-26T07:05:22;100918.45;;;15.43;9.60
64698;BME280;51124;53.394;-6.294;2023-04-26T07:07:55;100917.21;;;16.74;9.83
64698;BME280;51124;53.394;-6.294;2023-04-26T07:10:28;100916.08;;;16.35;9.83
64698;BME280;51124;53.394;-6.294;2023-04-26T07:13:02;100921.42;;;16.63;9.64
64698;BME280;51124;53.394;-6.294;2023-04-26T07:15:36;100916.36;;;16.54;9.74
64698;BME280;51124;53.394;-6.294;2023-04-26T07:18:10;100913.18;;;18.07;9.92
64698;BME280;51124;53.394;-6.294;2023-04-26T07:20:43;100912.10;;;16.28;10.06
64698;BME280;51124;53.394;-6.294;2023-04-26T07:23:17;100916.69;;;16.17;10.05
64698;BME280;51124;53.394;-6.294;2023-04-26T07:25:50;100917.81;;;16.64;9.85
64698;BME280;51124;53.394;-6.294;2023-04-26T07:28:23;100911.45;;;17.16;9.72
64698;BME280;51124;53.394;-6.294;2023-04-26T07:30:57;100908.40;;;17.41;9.47
64698;BME280;51124;53.394;-6.294;2023-04-26T07:33:31;100906.66;;;17.96;9.28
64698;BME280;51124;53.394;-6.294;2023-04-26T07:36:05;100907.45;;;17.36;9.33
64698;BME280;51124;53.394;-6.294;2023-04-26T07:38:38;100903.69;;;17.23;9.10
64698;BME280;51124;53.394;-6.294;2023-04-26T07:41:11;100907.90;;;17.81;9.14
64698;BME280;51124;53.394;-6.294;2023-04-26T07:43:45;100904.67;;;17.70;9.04
64698;BME280;51124;53.394;-6.294;2023-04-26T07:46:18;100905.67;;;18.46;8.76
64698;BME280;51124;53.394;-6.294;2023-04-26T07:48:52;100908.07;;;17.87;8.91
64698;BME280;51124;53.394;-6.294;2023-04-26T07:51:25;100906.83;;;18.19;8.80
64698;BME280;51124;53.394;-6.294;2023-04-26T07:53:59;100905.12;;;19.02;8.63
64698;BME280;51124;53.394;-6.294;2023-04-26T07:56:32;100905.58;;;17.89;8.94
64698;BME280;51124;53.394;-6.294;2023-04-26T07:59:05;100899.20;;;18.18;8.78
64698;BME280;51124;53.394;-6.294;2023-04-26T08:01:39;100902.11;;;18.60;8.70
64698;BME280;51124;53.394;-6.294;2023-04-26T08:04:12;100898.33;;;18.79;8.67
64698;BME280;51124;53.394;-6.294;2023-04-26T08:06:46;100902.65;;;18.79;8.59
64698;BME280;51124;53.394;-6.294;2023-04-26T08:09:29;100906.30;;;18.42;8.73
64698;BME280;51124;53.394;-6.294;2023-04-26T08:12:03;100901.84;;;18.28;8.58
64698;BME280;51124;53.394;-6.294;2023-04-26T08:14:37;100903.78;;;18.68;8.39
64698;BME280;51124;53.394;-6.294;2023-04-26T08:17:10;100911.80;;;19.03;8.48
64698;BME280;51124;53.394;-6.294;2023-04-26T08:19:44;100908.89;;;18.68;8.43
64698;BME280;51124;53.394;-6.294;2023-04-26T08:22:17;100913.49;;;18.95;8.36
64698;BME280;51124;53.394;-6.294;2023-04-26T08:24:54;100915.53;;;19.95;8.32
64698;BME280;51124;53.394;-6.294;2023-04-26T08:27:17;100918.81;;;21.74;8.62
64698;BME280;51124;53.394;-6.294;2023-04-26T08:29:51;100920.68;;;20.38;9.07
64698;BME280;51124;53.394;-6.294;2023-04-26T08:32:24;100916.55;;;19.40;9.20
64698;BME280;51124;53.394;-6.294;2023-04-26T08:34:58;100914.24;;;19.14;9.10
64698;BME280;51124;53.394;-6.294;2023-04-26T08:37:32;100916.44;;;21.91;9.34
64698;BME280;51124;53.394;-6.294;2023-04-26T08:40:07;100917.59;;;21.31;9.73
64698;BME280;51124;53.394;-6.294;2023-04-26T08:42:31;100917.35;;;21.89;9.19
64698;BME280;51124;53.394;-6.294;2023-04-26T08:45:07;100922.44;;;21.33;9.29
64698;BME280;51124;53.394;-6.294;2023-04-26T08:47:39;100920.63;;;22.05;9.05
64698;BME280;51124;53.394;-6.294;2023-04-26T08:50:03;100918.42;;;21.41;9.16
64698;BME280;51124;53.394;-6.294;2023-04-26T08:52:29;100918.12;;;21.72;9.21
64698;BME280;51124;53.394;-6.294;2023-04-26T08:55:04;100916.63;;;22.12;9.25
64698;BME280;51124;53.394;-6.294;2023-04-26T08:57:31;100915.76;;;20.88;9.40
64698;BME280;51124;53.394;-6.294;2023-04-26T09:00:05;100913.83;;;21.62;9.27
64698;BME280;51124;53.394;-6.294;2023-04-26T09:02:40;100920.17;;;21.56;9.42
64698;BME280;51124;53.394;-6.294;2023-04-26T09:05:13;100919.92;;;21.87;9.37
64698;BME280;51124;53.394;-6.294;2023-04-26T09:07:47;100922.87;;;21.19;9.44
64698;BME280;51124;53.394;-6.294;2023-04-26T09:10:22;100919.14;;;21.61;9.40
64698;BME280;51124;53.394;-6.294;2023-04-26T09:12:55;100921.45;;;20.93;9.68
64698;BME280;51124;53.394;-6.294;2023-04-26T09:15:29;100919.89;;;21.60;9.45
64698;BME280;51124;53.394;-6.294;2023-04-26T09:18:19;100916.59;;;20.51;10.51
64698;BME280;51124;53.394;-6.294;2023-04-26T09:20:32;100917.01;;;20.62;9.96
64698;BME280;51124;53.394;-6.294;2023-04-26T09:23:07;100913.13;;;20.96;9.60
64698;BME280;51124;53.394;-6.294;2023-04-26T09:25:31;100913.55;;;22.10;9.30
64698;BME280;51124;53.394;-6.294;2023-04-26T09:28:18;100911.86;;;20.95;9.11
64698;BME280;51124;53.394;-6.294;2023-04-26T09:30:37;100913.19;;;19.33;9.01
64698;BME280;51124;53.394;-6.294;2023-04-26T09:33:02;100907.27;;;20.36;8.61
64698;BME280;51124;53.394;-6.294;2023-04-26T09:35:37;100902.68;;;19.21;8.45
64698;BME280;51124;53.394;-6.294;2023-04-26T09:38:13;100913.70;;;19.49;8.18
64698;BME280;51124;53.394;-6.294;2023-04-26T09:40:39;100911.19;;;20.25;7.93
64698;BME280;51124;53.394;-6.294;2023-04-26T09:43:04;100909.87;;;19.83;8.31
64698;BME280;51124;53.394;-6.294;2023-04-26T09:45:29;100906.67;;;20.33;7.98
64698;BME280;51124;53.394;-6.294;2023-04-26T09:47:53;100903.15;;;20.28;7.99
64698;BME280;51124;53.394;-6.294;2023-04-26T09:50:28;100905.59;;;20.84;7.81
64698;BME280;51124;53.394;-6.294;2023-04-26T09:52:52;100905.66;;;20.41;7.78
64698;BME280;51124;53.394;-6.294;2023-04-26T09:55:26;100903.96;;;20.52;7.77
64698;BME280;51124;53.394;-6.294;2023-04-26T09:58:07;100908.23;;;19.89;7.75
64698;BME280;51124;53.394;-6.294;2023-04-26T10:00:30;100903.46;;;19.32;7.81
64698;BME280;51124;53.394;-6.294;2023-04-26T10:03:06;100906.57;;;19.61;9.06
64698;BME280;51124;53.394;-6.294;2023-04-26T10:05:31;100911.72;;;18.16;9.33
64698;BME280;51124;53.394;-6.294;2023-04-26T10:08:06;100912.84;;;18.98;9.03
64698;BME280;51124;53.394;-6.294;2023-04-26T10:10:40;100914.10;;;20.68;8.54
64698;BME280;51124;53.394;-6.294;2023-04-26T10:13:14;100905.82;;;20.42;8.32
64698;BME280;51124;53.394;-6.294;2023-04-26T10:15:48;100909.84;;;20.82;7.88
64698;BME280;51124;53.394;-6.294;2023-04-26T10:18:21;100906.26;;;21.38;7.48
64698;BME280;51124;53.394;-6.294;2023-04-26T10:20:56;100901.68;;;22.06;7.54
64698;BME280;51124;53.394;-6.294;2023-04-26T10:23:22;100898.73;;;21.84;7.54
64698;BME280;51124;53.394;-6.294;2023-04-26T10:25:46;100898.10;;;21.00;7.65
64698;BME280;51124;53.394;-6.294;2023-04-26T10:28:53;100895.83;;;21.51;7.55
64698;BME280;51124;53.394;-6.294;2023-04-26T10:30:53;100897.80;;;21.81;7.47
64698;BME280;51124;53.394;-6.294;2023-04-26T10:33:17;100895.93;;;20.54;7.42
64698;BME280;51124;53.394;-6.294;2023-04-26T10:36:08;100898.95;;;21.67;7.29
64698;BME280;51124;53.394;-6.294;2023-04-26T10:38:21;100894.16;;;21.45;7.16
64698;BME280;51124;53.394;-6.294;2023-04-26T10:40:55;100887.48;;;21.85;7.08
64698;BME280;51124;53.394;-6.294;2023-04-26T10:43:28;100889.34;;;21.27;7.16
64698;BME280;51124;53.394;-6.294;2023-04-26T10:46:33;100887.95;;;21.99;7.07
64698;BME280;51124;53.394;-6.294;2023-04-26T10:48:36;100890.43;;;21.64;7.10
64698;BME280;51124;53.394;-6.294;2023-04-26T10:51:09;100883.37;;;22.06;7.18
64698;BME280;51124;53.394;-6.294;2023-04-26T10:53:59;100885.67;;;22.67;7.02
64698;BME280;51124;53.394;-6.294;2023-04-26T10:56:49;100877.60;;;22.08;7.10
64698;BME280;51124;53.394;-6.294;2023-04-26T10:58:45;100881.84;;;22.31;7.12
64698;BME280;51124;53.394;-6.294;2023-04-26T11:01:12;100879.49;;;22.12;7.05
64698;BME280;51124;53.394;-6.294;2023-04-26T11:03:38;100883.70;;;21.61;7.23
64698;BME280;51124;53.394;-6.294;2023-04-26T11:06:05;100881.23;;;22.93;7.25
64698;BME280;51124;53.394;-6.294;2023-04-26T11:08:29;100882.75;;;21.98;7.40
64698;BME280;51124;53.394;-6.294;2023-04-26T11:11:06;100882.18;;;22.13;7.33
64698;BME280;51124;53.394;-6.294;2023-04-26T11:13:29;100884.16;;;22.88;7.21
64698;BME280;51124;53.394;-6.294;2023-04-26T11:16:04;100877.08;;;22.35;7.26
64698;BME280;51124;53.394;-6.294;2023-04-26T11:18:29;100872.92;;;22.97;7.26
64698;BME280;51124;53.394;-6.294;2023-04-26T11:21:03;100876.50;;;22.78;7.24
64698;BME280;51124;53.394;-6.294;2023-04-26T11:23:38;100879.90;;;22.47;7.35
64698;BME280;51124;53.394;-6.294;2023-04-26T11:26:12;100882.10;;;22.33;7.14
64698;BME280;51124;53.394;-6.294;2023-04-26T11:28:45;100881.97;;;21.84;7.09
64698;BME280;51124;53.394;-6.294;2023-04-26T11:31:10;100881.17;;;23.32;6.92
64698;BME280;51124;53.394;-6.294;2023-04-26T11:33:44;100886.19;;;22.64;6.78
64698;BME280;51124;53.394;-6.294;2023-04-26T11:36:17;100883.96;;;24.27;6.85
64698;BME280;51124;53.394;-6.294;2023-04-26T11:38:51;100899.41;;;25.45;7.21
64698;BME280;51124;53.394;-6.294;2023-04-26T11:41:24;100893.37;;;24.68;7.24
64698;BME280;51124;53.394;-6.294;2023-04-26T11:43:58;100894.00;;;24.24;7.27
64698;BME280;51124;53.394;-6.294;2023-04-26T11:46:31;100893.26;;;23.30;7.17
64698;BME280;51124;53.394;-6.294;2023-04-26T11:49:06;100899.36;;;26.17;7.18
64698;BME280;51124;53.394;-6.294;2023-04-26T11:51:31;100901.74;;;26.43;7.54
64698;BME280;51124;53.394;-6.294;2023-04-26T11:54:05;100904.94;;;25.41;7.70
64698;BME280;51124;53.394;-6.294;2023-04-26T11:56:38;100913.59;;;26.46;7.69
64698;BME280;51124;53.394;-6.294;2023-04-26T11:59:22;100914.48;;;26.31;7.59
64698;BME280;51124;53.394;-6.294;2023-04-26T12:01:49;100914.71;;;26.00;7.60
64698;BME280;51124;53.394;-6.294;2023-04-26T12:04:13;100906.50;;;26.71;7.58
64698;BME280;51124;53.394;-6.294;2023-04-26T12:06:46;100914.89;;;25.09;7.96
64698;BME280;51124;53.394;-6.294;2023-04-26T12:09:21;100914.64;;;26.23;7.90
64698;BME280;51124;53.394;-6.294;2023-04-26T12:11:57;100920.49;;;24.89;8.15
64698;BME280;51124;53.394;-6.294;2023-04-26T12:14:21;100915.73;;;27.10;7.52
64698;BME280;51124;53.394;-6.294;2023-04-26T12:16:54;100910.01;;;27.82;7.00
64698;BME280;51124;53.394;-6.294;2023-04-26T12:19:30;100910.27;;;26.94;6.85
64698;BME280;51124;53.394;-6.294;2023-04-26T12:21:54;100901.27;;;26.84;6.97
64698;BME280;51124;53.394;-6.294;2023-04-26T12:24:29;100915.48;;;25.82;7.15
64698;BME280;51124;53.394;-6.294;2023-04-26T12:27:04;100915.15;;;25.10;7.57
64698;BME280;51124;53.394;-6.294;2023-04-26T12:29:28;100917.36;;;25.09;7.89
64698;BME280;51124;53.394;-6.294;2023-04-26T12:32:02;100920.21;;;23.81;8.27
64698;BME280;51124;53.394;-6.294;2023-04-26T12:34:35;100914.42;;;23.23;8.38
64698;BME280;51124;53.394;-6.294;2023-04-26T12:37:09;100920.45;;;24.22;8.36
64698;BME280;51124;53.394;-6.294;2023-04-26T12:39:43;100915.16;;;23.18;8.30
64698;BME280;51124;53.394;-6.294;2023-04-26T12:42:16;100917.36;;;23.59;7.84
64698;BME280;51124;53.394;-6.294;2023-04-26T12:44:49;100917.78;;;22.88;7.68
64698;BME280;51124;53.394;-6.294;2023-04-26T12:47:23;100919.25;;;22.58;7.37
64698;BME280;51124;53.394;-6.294;2023-04-26T12:49:56;100918.90;;;22.54;7.41
64698;BME280;51124;53.394;-6.294;2023-04-26T12:52:30;100921.26;;;22.89;7.35
64698;BME280;51124;53.394;-6.294;2023-04-26T12:55:04;100909.79;;;22.84;7.18
64698;BME280;51124;53.394;-6.294;2023-04-26T12:57:39;100904.09;;;22.41;7.14
64698;BME280;51124;53.394;-6.294;2023-04-26T13:00:05;100907.72;;;22.75;7.07
64698;BME280;51124;53.394;-6.294;2023-04-26T13:02:28;100903.57;;;23.37;6.95
64698;BME280;51124;53.394;-6.294;2023-04-26T13:05:02;100912.41;;;22.59;6.97
64698;BME280;51124;53.394;-6.294;2023-04-26T13:07:42;100907.39;;;22.97;6.91
64698;BME280;51124;53.394;-6.294;2023-04-26T13:10:06;100910.17;;;23.32;6.80
64698;BME280;51124;53.394;-6.294;2023-04-26T13:12:40;100905.83;;;23.32;6.72
64698;BME280;51124;53.394;-6.294;2023-04-26T13:15:13;100903.80;;;23.34;6.73